Aérodrome :
LOGIN :

S'inscrire | Disclaimer

   EN    FR    IT 

 










Légende :    VFR   VFR Marginal   IFR   IFR Intensif   IFR Très Intensif
Visi : 
Plafond : 
>= 8 km
>= 3000ft
5 à 8 km
1000 à 3000 ft
1500m à 5 km
500 à 1000 ft
800 à 1500m
200 à 500 ft
< 800m
< 200 ft
Symboles :   Orages  Brouillard  Fortes neiges  Fortes précipitations  Vent > 20 kt
SIGMETs :   Divers  Orages  Givrage  Turbulence  Onde Orograph.  Cendres Volcan.







- Altitude de l'aérodrome : 1161 ft
- Code IATA : RJL


LELO - Logroño-Agoncillo

DERNIER METAR :
  • 152030Z 26009KT 230V290 9999 TS FEW025 SCT045CB 20/17 Q1017

METARs EXPIRÉS :
  • 152004Z 24008KT 190V280 9999 TS FEW030 SCT045CB BKN060 20/17 Q1016
  • 151930Z 29007G18KT 260V360 9999 TS FEW030 SCT045CB BKN060 18/17 Q1015
  • 151914Z 28018KT 240V300 9000 -TSRA SCT035CB BKN050 18/16 Q1015
  • 151906Z VRB07G21KT 7000 TSRA BKN035CB BKN050 18/16 Q1016
  • 151858Z 31006KT 250V040 4000 +TSRA BKN035CB BKN050 19/17 Q1015
  • 151845Z 28014G25KT 260V320 9999 TS SCT035CB SCT060 24/15 Q1014
  • 151836Z VRB07G20KT 9999 SCT035CB SCT065 25/17 Q1012
  • 151830Z VRB06G16KT 9999 SCT035TCU SCT075 25/17 Q1013
  • 151800Z 01006G16KT 260V070 9999 FEW035TCU SCT060 28/19 Q1012

TAF TAF LELO
Valide du 15 à 18h jusqu'au 16 à 03h UTC


151700Z 1518/1603 27007KT 9999 FEW035
PROB40
TEMPO 1518/1603 FEW040TCU
PROB30
TEMPO 1518/1524 VRB15G25KT TSRA FEW035CB
Pas de NOTAMs connus pour ce terrain.
2 SIGMETs publiés pour la FIR Madrid (LECM) :
 
Orages noyés dans la masse
LECM SIGMET 6 VALID 152100/152300 LEVA
LECM MADRID FIR/UIR EMBD TS OBS AT 2047Z WI N4447 W00612 - N4258 W00617 - N4220 W00321 - N4052 W00452 - N4032 W00409 - N4258 W00046 - N4447 W00612 TOP FL350 MOV NE 15KT NC=
Orages noyés dans la masse
LECM SIGMET 5 VALID 151954/152200 LEVA
LECM MADRID FIR/UIR EMBD TS OBS AT 1954Z W OF LINE N4120 W00522 - N3902 W00528 TOP FL300 MOV NE 15KT NC=



MET'MAP, la Météo Aéronautique d'un coup d'oeil ! - Copyright ORBIFLY Décembre 2007 - Disclaimer

ORBIFLY MET'MAP TEAM :

Programmation & Développement : Alexandra Zaïnal
Conception & Développement : Baudouin d'Aumeries
Co-Programmation & Développement : Marc-Olivier Méhu
Soutien technique & logistique : Manuel Goepfert

Contact : metmap@orbifly.com




SOURCES & CREDITS :

   NOAA